Arcoverde, Brazil
Current Conditions -  °F | °C
As of 6:00 PM on Tuesday 25 Nov 2014 (Local Time) from SBKG Reporting Station
Few Clouds Few Clouds  
Wind Chill: 77°   Ceiling: Unl
Heat Index: 79°   Visibility: 6mi
Dew Point: 66°   Wind: 22mph
Humidity: 69%   Direction: 100°E
Pressure: 29.91"   Gusts: NA
Location:  8.42°S, 37.05°W
Report Text: SBKG 252100Z 10019KT 9999 FEW040 25/19 Q1013
Loading
Personal Weather Stations






























Interactive Weather Map New forecast layout! Learn more

10-Day Weather Forecast

Advertisements
Track Severe Weather on mobile